< < Back
Terminal Aerodrome Forecast


Current Version              Previous Versions:   1  2  3  4  5  6  7  8  9  

Terminal Aerodrome Forecast

976
FTUS44 KMRX 282320
TAFTYS
TAF
KTYS 282320Z 0100/0124 06006KT P6SM SCT150
     FM010400 05004KT P6SM SCT035 BKN100
     FM010900 04003KT P6SM OVC035
     FM011500 04005KT P6SM OVC020
     FM012000 05005KT P6SM OVC010=



Latest METAR

228
SAUS80 KWBC 011600 RRF
MTRTYS
METAR KTYS 011553Z 00000KT 10SM OVC027 06/M01 A3043 RMK AO2 SLP307
T00611006 $


USA.gov is the U.S. government's official web portal to all federal, state and local government web resources and services.